sensor_id;sensor_type;location;lat;lon;timestamp;temperature;humidity
5848;DHT22;8756;49.29324300;8.70599800;2023-01-30T00:01:30;0.10;99.90
5848;DHT22;8756;49.29324300;8.70599800;2023-01-30T00:03:57;0.00;99.90
5848;DHT22;8756;49.29324300;8.70599800;2023-01-30T00:06:23;0.10;99.90
5848;DHT22;8756;49.29324300;8.70599800;2023-01-30T00:08:49;0.10;99.90
5848;DHT22;8756;49.29324300;8.70599800;2023-01-30T00:11:17;0.10;99.90
5848;DHT22;8756;49.29324300;8.70599800;2023-01-30T00:13:47;0.10;99.90
5848;DHT22;8756;49.29324300;8.70599800;2023-01-30T00:16:14;0.10;99.90
5848;DHT22;8756;49.29324300;8.70599800;2023-01-30T00:18:41;0.10;99.90
5848;DHT22;8756;49.29324300;8.70599800;2023-01-30T00:21:09;0.10;99.90
5848;DHT22;8756;49.29324300;8.70599800;2023-01-30T00:23:36;0.10;99.90
5848;DHT22;8756;49.29324300;8.70599800;2023-01-30T00:26:03;0.10;99.90
5848;DHT22;8756;49.29324300;8.70599800;2023-01-30T00:28:29;0.10;99.90
5848;DHT22;8756;49.29324300;8.70599800;2023-01-30T00:30:55;0.10;99.90
5848;DHT22;8756;49.29324300;8.70599800;2023-01-30T00:33:23;0.10;99.90
5848;DHT22;8756;49.29324300;8.70599800;2023-01-30T00:35:51;0.10;99.90
5848;DHT22;8756;49.29324300;8.70599800;2023-01-30T00:38:18;0.10;99.90
5848;DHT22;8756;49.29324300;8.70599800;2023-01-30T00:40:44;0.10;99.90
5848;DHT22;8756;49.29324300;8.70599800;2023-01-30T00:43:13;0.10;99.90
5848;DHT22;8756;49.29324300;8.70599800;2023-01-30T00:46:02;0.10;99.90
5848;DHT22;8756;49.29324300;8.70599800;2023-01-30T00:48:48;0.10;99.90
5848;DHT22;8756;49.29324300;8.70599800;2023-01-30T00:51:13;0.20;99.90
5848;DHT22;8756;49.29324300;8.70599800;2023-01-30T00:53:41;0.20;99.90
5848;DHT22;8756;49.29324300;8.70599800;2023-01-30T00:56:07;0.20;99.90
5848;DHT22;8756;49.29324300;8.70599800;2023-01-30T00:58:32;0.20;99.90
5848;DHT22;8756;49.29324300;8.70599800;2023-01-30T01:00:58;0.30;99.90
5848;DHT22;8756;49.29324300;8.70599800;2023-01-30T01:03:24;0.30;99.90
5848;DHT22;8756;49.29324300;8.70599800;2023-01-30T01:05:49;0.30;99.90
5848;DHT22;8756;49.29324300;8.70599800;2023-01-30T01:08:15;0.40;99.90
5848;DHT22;8756;49.29324300;8.70599800;2023-01-30T01:10:41;0.40;99.90
5848;DHT22;8756;49.29324300;8.70599800;2023-01-30T01:13:07;0.40;99.90
5848;DHT22;8756;49.29324300;8.70599800;2023-01-30T01:15:33;0.40;99.90
5848;DHT22;8756;49.29324300;8.70599800;2023-01-30T01:17:58;0.40;99.90
5848;DHT22;8756;49.29324300;8.70599800;2023-01-30T01:20:24;0.40;99.90
5848;DHT22;8756;49.29324300;8.70599800;2023-01-30T01:22:54;0.50;99.90
5848;DHT22;8756;49.29324300;8.70599800;2023-01-30T01:25:21;0.50;99.90
5848;DHT22;8756;49.29324300;8.70599800;2023-01-30T01:27:48;0.50;99.90
5848;DHT22;8756;49.29324300;8.70599800;2023-01-30T01:30:14;0.50;99.90
5848;DHT22;8756;49.29324300;8.70599800;2023-01-30T01:32:40;0.60;99.90
5848;DHT22;8756;49.29324300;8.70599800;2023-01-30T01:35:06;0.60;99.90
5848;DHT22;8756;49.29324300;8.70599800;2023-01-30T01:37:32;0.60;99.90
5848;DHT22;8756;49.29324300;8.70599800;2023-01-30T01:39:58;0.70;99.90
5848;DHT22;8756;49.29324300;8.70599800;2023-01-30T01:42:43;0.70;99.90
5848;DHT22;8756;49.29324300;8.70599800;2023-01-30T01:48:01;0.80;99.90
5848;DHT22;8756;49.29324300;8.70599800;2023-01-30T01:53:39;0.80;99.90
5848;DHT22;8756;49.29324300;8.70599800;2023-01-30T01:56:09;0.80;99.90
5848;DHT22;8756;49.29324300;8.70599800;2023-01-30T01:58:44;0.80;99.90
5848;DHT22;8756;49.29324300;8.70599800;2023-01-30T02:01:12;0.80;99.90
5848;DHT22;8756;49.29324300;8.70599800;2023-01-30T02:03:41;0.80;99.90
5848;DHT22;8756;49.29324300;8.70599800;2023-01-30T02:06:11;0.90;99.90
5848;DHT22;8756;49.29324300;8.70599800;2023-01-30T02:08:42;0.90;99.90
5848;DHT22;8756;49.29324300;8.70599800;2023-01-30T02:11:16;0.90;99.90
5848;DHT22;8756;49.29324300;8.70599800;2023-01-30T02:13:50;0.90;99.90
5848;DHT22;8756;49.29324300;8.70599800;2023-01-30T02:16:16;0.90;99.90
5848;DHT22;8756;49.29324300;8.70599800;2023-01-30T02:18:43;0.80;99.90
5848;DHT22;8756;49.29324300;8.70599800;2023-01-30T02:24:46;0.90;99.90
5848;DHT22;8756;49.29324300;8.70599800;2023-01-30T02:30:40;0.90;99.90
5848;DHT22;8756;49.29324300;8.70599800;2023-01-30T02:34:20;0.90;99.90
5848;DHT22;8756;49.29324300;8.70599800;2023-01-30T02:39:31;0.90;99.90
5848;DHT22;8756;49.29324300;8.70599800;2023-01-30T02:42:18;0.80;99.90
5848;DHT22;8756;49.29324300;8.70599800;2023-01-30T02:44:58;0.80;99.90
5848;DHT22;8756;49.29324300;8.70599800;2023-01-30T02:47:57;0.80;99.90
5848;DHT22;8756;49.29324300;8.70599800;2023-01-30T02:53:06;0.80;99.90
5848;DHT22;8756;49.29324300;8.70599800;2023-01-30T02:55:32;0.80;99.90
5848;DHT22;8756;49.29324300;8.70599800;2023-01-30T02:57:58;0.80;99.90
5848;DHT22;8756;49.29324300;8.70599800;2023-01-30T03:00:54;0.80;99.90
5848;DHT22;8756;49.29324300;8.70599800;2023-01-30T03:03:55;0.80;99.90
5848;DHT22;8756;49.29324300;8.70599800;2023-01-30T03:09:45;0.80;99.90
5848;DHT22;8756;49.29324300;8.70599800;2023-01-30T03:15:31;0.80;99.90
5848;DHT22;8756;49.29324300;8.70599800;2023-01-30T03:17:58;0.80;99.90
5848;DHT22;8756;49.29324300;8.70599800;2023-01-30T03:20:25;0.80;99.90
5848;DHT22;8756;49.29324300;8.70599800;2023-01-30T03:22:52;0.80;99.90
5848;DHT22;8756;49.29324300;8.70599800;2023-01-30T03:25:21;0.80;99.90
5848;DHT22;8756;49.29324300;8.70599800;2023-01-30T03:27:52;0.80;99.90
5848;DHT22;8756;49.29324300;8.70599800;2023-01-30T03:30:19;0.70;99.90
5848;DHT22;8756;49.29324300;8.70599800;2023-01-30T03:32:45;0.70;99.90
5848;DHT22;8756;49.29324300;8.70599800;2023-01-30T03:35:11;0.70;99.90
5848;DHT22;8756;49.29324300;8.70599800;2023-01-30T03:37:37;0.70;99.90
5848;DHT22;8756;49.29324300;8.70599800;2023-01-30T03:40:03;0.70;99.90
5848;DHT22;8756;49.29324300;8.70599800;2023-01-30T03:42:29;0.70;99.90
5848;DHT22;8756;49.29324300;8.70599800;2023-01-30T03:44:55;0.70;99.90
5848;DHT22;8756;49.29324300;8.70599800;2023-01-30T03:47:21;0.70;99.90
5848;DHT22;8756;49.29324300;8.70599800;2023-01-30T03:49:47;0.60;99.90
5848;DHT22;8756;49.29324300;8.70599800;2023-01-30T03:52:12;0.60;99.90
5848;DHT22;8756;49.29324300;8.70599800;2023-01-30T03:54:38;0.60;99.90
5848;DHT22;8756;49.29324300;8.70599800;2023-01-30T03:57:03;0.70;99.90
5848;DHT22;8756;49.29324300;8.70599800;2023-01-30T03:59:29;0.60;99.90
5848;DHT22;8756;49.29324300;8.70599800;2023-01-30T04:01:55;0.70;99.90
5848;DHT22;8756;49.29324300;8.70599800;2023-01-30T04:04:21;0.70;99.90
5848;DHT22;8756;49.29324300;8.70599800;2023-01-30T04:06:47;0.70;99.90
5848;DHT22;8756;49.29324300;8.70599800;2023-01-30T04:09:12;0.70;99.90
5848;DHT22;8756;49.29324300;8.70599800;2023-01-30T04:11:38;0.70;99.90
5848;DHT22;8756;49.29324300;8.70599800;2023-01-30T04:14:04;0.70;99.90
5848;DHT22;8756;49.29324300;8.70599800;2023-01-30T04:16:29;0.70;99.90
5848;DHT22;8756;49.29324300;8.70599800;2023-01-30T04:18:55;0.70;99.90
5848;DHT22;8756;49.29324300;8.70599800;2023-01-30T04:21:21;0.70;99.90
5848;DHT22;8756;49.29324300;8.70599800;2023-01-30T04:23:46;0.70;99.90
5848;DHT22;8756;49.29324300;8.70599800;2023-01-30T04:26:12;0.70;99.90
5848;DHT22;8756;49.29324300;8.70599800;2023-01-30T04:28:38;0.80;99.90
5848;DHT22;8756;49.29324300;8.70599800;2023-01-30T04:31:05;0.70;99.90
5848;DHT22;8756;49.29324300;8.70599800;2023-01-30T04:33:31;0.70;99.90
5848;DHT22;8756;49.29324300;8.70599800;2023-01-30T04:36:00;0.70;99.90
5848;DHT22;8756;49.29324300;8.70599800;2023-01-30T04:38:28;0.70;99.90
5848;DHT22;8756;49.29324300;8.70599800;2023-01-30T04:40:56;0.70;99.90
5848;DHT22;8756;49.29324300;8.70599800;2023-01-30T04:43:23;0.70;99.90
5848;DHT22;8756;49.29324300;8.70599800;2023-01-30T04:45:50;0.70;99.90
5848;DHT22;8756;49.29324300;8.70599800;2023-01-30T04:48:17;0.70;99.90
5848;DHT22;8756;49.29324300;8.70599800;2023-01-30T04:50:47;0.70;99.90
5848;DHT22;8756;49.29324300;8.70599800;2023-01-30T04:53:14;0.70;99.90
5848;DHT22;8756;49.29324300;8.70599800;2023-01-30T04:55:40;0.70;99.90
5848;DHT22;8756;49.29324300;8.70599800;2023-01-30T04:58:05;0.70;99.90
5848;DHT22;8756;49.29324300;8.70599800;2023-01-30T05:00:31;0.70;99.90
5848;DHT22;8756;49.29324300;8.70599800;2023-01-30T05:02:57;0.70;99.90
5848;DHT22;8756;49.29324300;8.70599800;2023-01-30T05:05:24;0.70;99.90
5848;DHT22;8756;49.29324300;8.70599800;2023-01-30T05:07:50;0.70;99.90
5848;DHT22;8756;49.29324300;8.70599800;2023-01-30T05:10:17;0.70;99.90
5848;DHT22;8756;49.29324300;8.70599800;2023-01-30T05:12:43;0.70;99.90
5848;DHT22;8756;49.29324300;8.70599800;2023-01-30T05:15:10;0.70;99.90
5848;DHT22;8756;49.29324300;8.70599800;2023-01-30T05:17:36;0.70;99.90
5848;DHT22;8756;49.29324300;8.70599800;2023-01-30T05:20:02;0.70;99.90
5848;DHT22;8756;49.29324300;8.70599800;2023-01-30T05:22:28;0.70;99.90
5848;DHT22;8756;49.29324300;8.70599800;2023-01-30T05:24:54;0.70;99.90
5848;DHT22;8756;49.29324300;8.70599800;2023-01-30T05:27:19;0.70;99.90
5848;DHT22;8756;49.29324300;8.70599800;2023-01-30T05:29:45;0.70;99.90
5848;DHT22;8756;49.29324300;8.70599800;2023-01-30T05:32:15;0.70;99.90
5848;DHT22;8756;49.29324300;8.70599800;2023-01-30T05:34:41;0.70;99.90
5848;DHT22;8756;49.29324300;8.70599800;2023-01-30T05:37:07;0.70;99.90
5848;DHT22;8756;49.29324300;8.70599800;2023-01-30T05:39:33;0.70;99.90
5848;DHT22;8756;49.29324300;8.70599800;2023-01-30T05:41:59;0.70;99.90
5848;DHT22;8756;49.29324300;8.70599800;2023-01-30T05:44:25;0.80;99.90
5848;DHT22;8756;49.29324300;8.70599800;2023-01-30T05:46:50;0.80;99.90
5848;DHT22;8756;49.29324300;8.70599800;2023-01-30T05:49:18;0.80;99.90
5848;DHT22;8756;49.29324300;8.70599800;2023-01-30T05:51:44;0.80;99.90
5848;DHT22;8756;49.29324300;8.70599800;2023-01-30T05:54:09;0.80;99.90
5848;DHT22;8756;49.29324300;8.70599800;2023-01-30T05:56:35;0.80;99.90
5848;DHT22;8756;49.29324300;8.70599800;2023-01-30T05:59:01;0.80;99.90
5848;DHT22;8756;49.29324300;8.70599800;2023-01-30T06:01:28;0.80;99.90
5848;DHT22;8756;49.29324300;8.70599800;2023-01-30T06:03:54;0.80;99.90
5848;DHT22;8756;49.29324300;8.70599800;2023-01-30T06:06:21;0.90;99.90
5848;DHT22;8756;49.29324300;8.70599800;2023-01-30T06:08:51;0.90;99.90
5848;DHT22;8756;49.29324300;8.70599800;2023-01-30T06:11:17;0.90;99.90
5848;DHT22;8756;49.29324300;8.70599800;2023-01-30T06:13:43;0.90;99.90
5848;DHT22;8756;49.29324300;8.70599800;2023-01-30T06:16:11;0.90;99.90
5848;DHT22;8756;49.29324300;8.70599800;2023-01-30T06:18:39;0.90;99.90
5848;DHT22;8756;49.29324300;8.70599800;2023-01-30T06:21:06;0.90;99.90
5848;DHT22;8756;49.29324300;8.70599800;2023-01-30T06:23:32;0.90;99.90
5848;DHT22;8756;49.29324300;8.70599800;2023-01-30T06:25:58;1.00;99.90
5848;DHT22;8756;49.29324300;8.70599800;2023-01-30T06:28:27;0.90;99.90
5848;DHT22;8756;49.29324300;8.70599800;2023-01-30T06:30:53;1.00;99.90
5848;DHT22;8756;49.29324300;8.70599800;2023-01-30T06:33:19;1.00;99.90
5848;DHT22;8756;49.29324300;8.70599800;2023-01-30T06:35:48;1.00;99.90
5848;DHT22;8756;49.29324300;8.70599800;2023-01-30T06:38:15;1.00;99.90
5848;DHT22;8756;49.29324300;8.70599800;2023-01-30T06:40:43;1.00;99.90
5848;DHT22;8756;49.29324300;8.70599800;2023-01-30T06:43:10;1.00;99.90
5848;DHT22;8756;49.29324300;8.70599800;2023-01-30T06:45:36;1.00;99.90
5848;DHT22;8756;49.29324300;8.70599800;2023-01-30T06:48:02;0.90;99.90
5848;DHT22;8756;49.29324300;8.70599800;2023-01-30T06:50:29;0.90;99.90
5848;DHT22;8756;49.29324300;8.70599800;2023-01-30T06:52:55;0.90;99.90
5848;DHT22;8756;49.29324300;8.70599800;2023-01-30T06:55:24;0.90;99.90
5848;DHT22;8756;49.29324300;8.70599800;2023-01-30T06:58:01;0.90;99.90
5848;DHT22;8756;49.29324300;8.70599800;2023-01-30T07:00:28;0.90;99.90
5848;DHT22;8756;49.29324300;8.70599800;2023-01-30T07:02:54;0.90;99.90
5848;DHT22;8756;49.29324300;8.70599800;2023-01-30T07:05:20;0.90;99.90
5848;DHT22;8756;49.29324300;8.70599800;2023-01-30T07:07:46;0.90;99.90
5848;DHT22;8756;49.29324300;8.70599800;2023-01-30T07:10:12;0.90;99.90
5848;DHT22;8756;49.29324300;8.70599800;2023-01-30T07:12:37;0.90;99.90
5848;DHT22;8756;49.29324300;8.70599800;2023-01-30T07:15:04;0.90;99.90
5848;DHT22;8756;49.29324300;8.70599800;2023-01-30T07:17:31;0.90;99.90
5848;DHT22;8756;49.29324300;8.70599800;2023-01-30T07:19:57;0.90;99.90
5848;DHT22;8756;49.29324300;8.70599800;2023-01-30T07:22:23;0.90;99.90
5848;DHT22;8756;49.29324300;8.70599800;2023-01-30T07:24:48;0.90;99.90
5848;DHT22;8756;49.29324300;8.70599800;2023-01-30T07:27:14;0.90;99.90
5848;DHT22;8756;49.29324300;8.70599800;2023-01-30T07:29:40;0.90;99.90
5848;DHT22;8756;49.29324300;8.70599800;2023-01-30T07:32:07;0.90;99.90
5848;DHT22;8756;49.29324300;8.70599800;2023-01-30T07:34:40;0.90;99.90
5848;DHT22;8756;49.29324300;8.70599800;2023-01-30T07:37:06;0.90;99.90
5848;DHT22;8756;49.29324300;8.70599800;2023-01-30T07:39:32;0.90;99.90
5848;DHT22;8756;49.29324300;8.70599800;2023-01-30T07:42:01;0.90;99.90
5848;DHT22;8756;49.29324300;8.70599800;2023-01-30T07:44:27;1.00;99.90
5848;DHT22;8756;49.29324300;8.70599800;2023-01-30T07:46:53;1.00;99.90
5848;DHT22;8756;49.29324300;8.70599800;2023-01-30T07:49:19;1.00;99.90
5848;DHT22;8756;49.29324300;8.70599800;2023-01-30T07:51:44;0.90;99.90
5848;DHT22;8756;49.29324300;8.70599800;2023-01-30T07:54:10;0.90;99.90
5848;DHT22;8756;49.29324300;8.70599800;2023-01-30T07:56:36;1.00;99.90
5848;DHT22;8756;49.29324300;8.70599800;2023-01-30T07:59:01;1.00;99.90
5848;DHT22;8756;49.29324300;8.70599800;2023-01-30T08:01:30;1.00;99.90
5848;DHT22;8756;49.29324300;8.70599800;2023-01-30T08:03:57;1.00;99.90
5848;DHT22;8756;49.29324300;8.70599800;2023-01-30T08:06:22;1.00;99.90
5848;DHT22;8756;49.29324300;8.70599800;2023-01-30T08:08:48;1.00;99.90
5848;DHT22;8756;49.29324300;8.70599800;2023-01-30T08:11:14;1.00;99.90
5848;DHT22;8756;49.29324300;8.70599800;2023-01-30T08:13:39;1.00;99.90
5848;DHT22;8756;49.29324300;8.70599800;2023-01-30T08:16:06;1.00;99.90
5848;DHT22;8756;49.29324300;8.70599800;2023-01-30T08:18:33;1.10;99.90
5848;DHT22;8756;49.29324300;8.70599800;2023-01-30T08:21:00;1.00;99.90
5848;DHT22;8756;49.29324300;8.70599800;2023-01-30T08:23:27;1.00;99.90
5848;DHT22;8756;49.29324300;8.70599800;2023-01-30T08:25:54;1.10;99.90
5848;DHT22;8756;49.29324300;8.70599800;2023-01-30T08:28:23;1.10;99.90
5848;DHT22;8756;49.29324300;8.70599800;2023-01-30T08:30:49;1.10;99.90
5848;DHT22;8756;49.29324300;8.70599800;2023-01-30T08:33:18;1.10;99.90
5848;DHT22;8756;49.29324300;8.70599800;2023-01-30T08:35:44;1.10;99.90
5848;DHT22;8756;49.29324300;8.70599800;2023-01-30T08:38:10;1.10;99.90
5848;DHT22;8756;49.29324300;8.70599800;2023-01-30T08:40:36;1.10;99.90
5848;DHT22;8756;49.29324300;8.70599800;2023-01-30T08:43:02;1.10;99.90
5848;DHT22;8756;49.29324300;8.70599800;2023-01-30T08:45:28;1.10;99.90
5848;DHT22;8756;49.29324300;8.70599800;2023-01-30T08:47:58;1.10;99.90
5848;DHT22;8756;49.29324300;8.70599800;2023-01-30T08:50:25;1.10;99.90
5848;DHT22;8756;49.29324300;8.70599800;2023-01-30T08:52:50;1.10;99.90
5848;DHT22;8756;49.29324300;8.70599800;2023-01-30T08:55:16;1.10;99.90
5848;DHT22;8756;49.29324300;8.70599800;2023-01-30T08:57:43;1.20;99.90
5848;DHT22;8756;49.29324300;8.70599800;2023-01-30T09:00:10;1.20;99.90
5848;DHT22;8756;49.29324300;8.70599800;2023-01-30T09:02:36;1.10;99.90
5848;DHT22;8756;49.29324300;8.70599800;2023-01-30T09:05:03;1.10;99.90
5848;DHT22;8756;49.29324300;8.70599800;2023-01-30T09:07:30;1.10;99.90
5848;DHT22;8756;49.29324300;8.70599800;2023-01-30T09:09:56;1.10;99.90
5848;DHT22;8756;49.29324300;8.70599800;2023-01-30T09:12:22;1.20;99.90
5848;DHT22;8756;49.29324300;8.70599800;2023-01-30T09:14:48;1.20;99.90
5848;DHT22;8756;49.29324300;8.70599800;2023-01-30T09:17:14;1.20;99.90
5848;DHT22;8756;49.29324300;8.70599800;2023-01-30T09:19:39;1.20;99.90
5848;DHT22;8756;49.29324300;8.70599800;2023-01-30T09:22:05;1.20;99.90
5848;DHT22;8756;49.29324300;8.70599800;2023-01-30T09:24:34;1.20;99.90
5848;DHT22;8756;49.29324300;8.70599800;2023-01-30T09:27:00;1.20;99.90
5848;DHT22;8756;49.29324300;8.70599800;2023-01-30T09:29:26;1.20;99.90
5848;DHT22;8756;49.29324300;8.70599800;2023-01-30T09:31:53;1.30;99.90
5848;DHT22;8756;49.29324300;8.70599800;2023-01-30T09:34:24;1.30;99.90
5848;DHT22;8756;49.29324300;8.70599800;2023-01-30T09:36:54;1.30;99.90
5848;DHT22;8756;49.29324300;8.70599800;2023-01-30T09:39:21;1.30;99.90
5848;DHT22;8756;49.29324300;8.70599800;2023-01-30T09:44:42;1.30;99.90
5848;DHT22;8756;49.29324300;8.70599800;2023-01-30T09:47:14;1.30;99.90
5848;DHT22;8756;49.29324300;8.70599800;2023-01-30T09:53:01;1.30;99.90
5848;DHT22;8756;49.29324300;8.70599800;2023-01-30T09:55:32;1.40;99.90
5848;DHT22;8756;49.29324300;8.70599800;2023-01-30T09:58:02;1.40;99.90
5848;DHT22;8756;49.29324300;8.70599800;2023-01-30T10:00:38;1.40;99.90
5848;DHT22;8756;49.29324300;8.70599800;2023-01-30T10:03:12;1.40;99.90
5848;DHT22;8756;49.29324300;8.70599800;2023-01-30T10:05:48;1.40;99.90
5848;DHT22;8756;49.29324300;8.70599800;2023-01-30T10:08:51;1.40;99.90
5848;DHT22;8756;49.29324300;8.70599800;2023-01-30T10:11:55;1.40;99.90
5848;DHT22;8756;49.29324300;8.70599800;2023-01-30T10:15:12;1.50;99.90
5848;DHT22;8756;49.29324300;8.70599800;2023-01-30T10:21:03;1.60;99.90
5848;DHT22;8756;49.29324300;8.70599800;2023-01-30T10:24:01;1.60;99.90
5848;DHT22;8756;49.29324300;8.70599800;2023-01-30T10:26:40;1.60;99.90
5848;DHT22;8756;49.29324300;8.70599800;2023-01-30T10:29:14;1.60;99.90
5848;DHT22;8756;49.29324300;8.70599800;2023-01-30T10:31:50;1.70;99.90
5848;DHT22;8756;49.29324300;8.70599800;2023-01-30T10:34:41;1.70;99.90
5848;DHT22;8756;49.29324300;8.70599800;2023-01-30T10:40:03;1.80;99.90
5848;DHT22;8756;49.29324300;8.70599800;2023-01-30T10:42:45;1.90;99.90
5848;DHT22;8756;49.29324300;8.70599800;2023-01-30T10:45:37;1.90;99.90
5848;DHT22;8756;49.29324300;8.70599800;2023-01-30T10:48:41;1.90;99.90
5848;DHT22;8756;49.29324300;8.70599800;2023-01-30T10:51:47;2.00;99.90
5848;DHT22;8756;49.29324300;8.70599800;2023-01-30T10:54:24;2.00;99.90
5848;DHT22;8756;49.29324300;8.70599800;2023-01-30T10:56:59;2.00;99.90
5848;DHT22;8756;49.29324300;8.70599800;2023-01-30T11:04:57;2.10;99.90
5848;DHT22;8756;49.29324300;8.70599800;2023-01-30T11:07:30;2.10;99.90
5848;DHT22;8756;49.29324300;8.70599800;2023-01-30T11:09:58;2.10;99.90
5848;DHT22;8756;49.29324300;8.70599800;2023-01-30T11:12:24;2.10;99.90
5848;DHT22;8756;49.29324300;8.70599800;2023-01-30T11:14:58;2.10;99.90
5848;DHT22;8756;49.29324300;8.70599800;2023-01-30T11:17:36;2.10;99.90
5848;DHT22;8756;49.29324300;8.70599800;2023-01-30T11:20:15;2.20;99.90
5848;DHT22;8756;49.29324300;8.70599800;2023-01-30T11:22:47;2.20;99.90
5848;DHT22;8756;49.29324300;8.70599800;2023-01-30T11:25:21;2.20;99.90
5848;DHT22;8756;49.29324300;8.70599800;2023-01-30T11:28:11;2.20;99.90
5848;DHT22;8756;49.29324300;8.70599800;2023-01-30T11:30:40;2.20;99.90
5848;DHT22;8756;49.29324300;8.70599800;2023-01-30T11:33:15;2.20;99.90
5848;DHT22;8756;49.29324300;8.70599800;2023-01-30T11:35:55;2.20;99.90
5848;DHT22;8756;49.29324300;8.70599800;2023-01-30T11:38:25;2.30;99.90
5848;DHT22;8756;49.29324300;8.70599800;2023-01-30T11:43:37;2.30;99.90
5848;DHT22;8756;49.29324300;8.70599800;2023-01-30T11:46:07;2.30;99.90
5848;DHT22;8756;49.29324300;8.70599800;2023-01-30T11:48:42;2.30;99.90
5848;DHT22;8756;49.29324300;8.70599800;2023-01-30T11:51:14;2.30;99.90
5848;DHT22;8756;49.29324300;8.70599800;2023-01-30T11:53:46;2.30;99.90
5848;DHT22;8756;49.29324300;8.70599800;2023-01-30T11:56:32;2.30;99.90
5848;DHT22;8756;49.29324300;8.70599800;2023-01-30T11:59:24;2.30;99.90
5848;DHT22;8756;49.29324300;8.70599800;2023-01-30T12:01:52;2.30;99.90
5848;DHT22;8756;49.29324300;8.70599800;2023-01-30T12:04:27;2.30;99.90
5848;DHT22;8756;49.29324300;8.70599800;2023-01-30T12:07:05;2.40;99.90
5848;DHT22;8756;49.29324300;8.70599800;2023-01-30T12:09:36;2.40;99.90
5848;DHT22;8756;49.29324300;8.70599800;2023-01-30T12:12:29;2.30;99.90
5848;DHT22;8756;49.29324300;8.70599800;2023-01-30T12:15:24;2.30;99.90
5848;DHT22;8756;49.29324300;8.70599800;2023-01-30T12:18:17;2.40;99.90
5848;DHT22;8756;49.29324300;8.70599800;2023-01-30T12:21:24;2.40;99.90
5848;DHT22;8756;49.29324300;8.70599800;2023-01-30T12:24:10;2.40;99.90
5848;DHT22;8756;49.29324300;8.70599800;2023-01-30T12:27:00;2.40;99.90
5848;DHT22;8756;49.29324300;8.70599800;2023-01-30T12:30:04;2.40;99.90
5848;DHT22;8756;49.29324300;8.70599800;2023-01-30T12:32:40;2.40;99.90
5848;DHT22;8756;49.29324300;8.70599800;2023-01-30T12:35:16;2.40;99.90
5848;DHT22;8756;49.29324300;8.70599800;2023-01-30T12:40:45;2.50;99.90
5848;DHT22;8756;49.29324300;8.70599800;2023-01-30T12:43:39;2.50;99.90
5848;DHT22;8756;49.29324300;8.70599800;2023-01-30T12:49:45;2.50;99.90
5848;DHT22;8756;49.29324300;8.70599800;2023-01-30T12:58:23;2.60;99.90
5848;DHT22;8756;49.29324300;8.70599800;2023-01-30T13:01:27;2.60;99.90
5848;DHT22;8756;49.29324300;8.70599800;2023-01-30T13:07:25;2.70;99.90
5848;DHT22;8756;49.29324300;8.70599800;2023-01-30T13:16:09;2.70;99.90
5848;DHT22;8756;49.29324300;8.70599800;2023-01-30T13:19:11;2.70;99.90
5848;DHT22;8756;49.29324300;8.70599800;2023-01-30T13:21:48;2.70;99.90
5848;DHT22;8756;49.29324300;8.70599800;2023-01-30T13:24:46;2.70;99.90
5848;DHT22;8756;49.29324300;8.70599800;2023-01-30T13:27:19;2.70;99.90
5848;DHT22;8756;49.29324300;8.70599800;2023-01-30T13:29:47;2.70;99.90
5848;DHT22;8756;49.29324300;8.70599800;2023-01-30T13:32:36;2.70;99.90
5848;DHT22;8756;49.29324300;8.70599800;2023-01-30T13:35:16;2.70;99.90
5848;DHT22;8756;49.29324300;8.70599800;2023-01-30T13:37:46;2.80;99.90
5848;DHT22;8756;49.29324300;8.70599800;2023-01-30T13:40:17;2.80;99.90
5848;DHT22;8756;49.29324300;8.70599800;2023-01-30T13:42:51;2.80;99.90
5848;DHT22;8756;49.29324300;8.70599800;2023-01-30T13:45:33;2.90;99.90
5848;DHT22;8756;49.29324300;8.70599800;2023-01-30T13:54:29;2.90;99.90
5848;DHT22;8756;49.29324300;8.70599800;2023-01-30T13:57:15;2.90;99.90
5848;DHT22;8756;49.29324300;8.70599800;2023-01-30T13:59:58;2.90;99.90
5848;DHT22;8756;49.29324300;8.70599800;2023-01-30T14:08:21;3.00;99.90
5848;DHT22;8756;49.29324300;8.70599800;2023-01-30T14:10:50;3.00;99.90
5848;DHT22;8756;49.29324300;8.70599800;2023-01-30T14:13:16;3.10;99.90
5848;DHT22;8756;49.29324300;8.70599800;2023-01-30T14:16:01;3.10;99.90
5848;DHT22;8756;49.29324300;8.70599800;2023-01-30T14:18:35;3.10;99.90
5848;DHT22;8756;49.29324300;8.70599800;2023-01-30T14:23:56;3.10;99.90
5848;DHT22;8756;49.29324300;8.70599800;2023-01-30T14:40:09;3.20;99.90
5848;DHT22;8756;49.29324300;8.70599800;2023-01-30T14:43:59;3.20;99.90
5848;DHT22;8756;49.29324300;8.70599800;2023-01-30T14:56:51;3.30;99.90
5848;DHT22;8756;49.29324300;8.70599800;2023-01-30T14:59:32;3.30;99.90
5848;DHT22;8756;49.29324300;8.70599800;2023-01-30T15:07:39;3.30;99.90
5848;DHT22;8756;49.29324300;8.70599800;2023-01-30T15:16:44;3.30;99.90
5848;DHT22;8756;49.29324300;8.70599800;2023-01-30T15:19:32;3.30;99.90
5848;DHT22;8756;49.29324300;8.70599800;2023-01-30T15:22:43;3.30;99.90
5848;DHT22;8756;49.29324300;8.70599800;2023-01-30T15:26:24;3.30;99.90
5848;DHT22;8756;49.29324300;8.70599800;2023-01-30T15:32:00;3.30;99.90
5848;DHT22;8756;49.29324300;8.70599800;2023-01-30T15:34:37;3.30;99.90
5848;DHT22;8756;49.29324300;8.70599800;2023-01-30T15:37:27;3.30;99.90
5848;DHT22;8756;49.29324300;8.70599800;2023-01-30T15:46:25;3.40;99.90
5848;DHT22;8756;49.29324300;8.70599800;2023-01-30T15:51:31;3.40;99.90
5848;DHT22;8756;49.29324300;8.70599800;2023-01-30T15:53:59;3.40;99.90
5848;DHT22;8756;49.29324300;8.70599800;2023-01-30T15:56:30;3.40;99.90
5848;DHT22;8756;49.29324300;8.70599800;2023-01-30T15:58:58;3.40;99.90
5848;DHT22;8756;49.29324300;8.70599800;2023-01-30T16:01:25;3.40;99.90
5848;DHT22;8756;49.29324300;8.70599800;2023-01-30T16:03:51;3.40;99.90
5848;DHT22;8756;49.29324300;8.70599800;2023-01-30T16:06:34;3.40;99.90
5848;DHT22;8756;49.29324300;8.70599800;2023-01-30T16:09:23;3.30;99.90
5848;DHT22;8756;49.29324300;8.70599800;2023-01-30T16:11:49;3.30;99.90
5848;DHT22;8756;49.29324300;8.70599800;2023-01-30T16:14:20;3.30;99.90
5848;DHT22;8756;49.29324300;8.70599800;2023-01-30T16:16:59;3.30;99.90
5848;DHT22;8756;49.29324300;8.70599800;2023-01-30T16:19:32;3.30;99.90
5848;DHT22;8756;49.29324300;8.70599800;2023-01-30T16:22:02;3.30;99.90
5848;DHT22;8756;49.29324300;8.70599800;2023-01-30T16:24:34;3.20;99.90
5848;DHT22;8756;49.29324300;8.70599800;2023-01-30T16:27:06;3.20;99.90
5848;DHT22;8756;49.29324300;8.70599800;2023-01-30T16:29:48;3.20;99.90
5848;DHT22;8756;49.29324300;8.70599800;2023-01-30T16:32:17;3.20;99.90
5848;DHT22;8756;49.29324300;8.70599800;2023-01-30T16:34:48;3.20;99.90